sensor_id;sensor_type;location;lat;lon;timestamp;P1;durP1;ratioP1;P2;durP2;ratioP2
55069;SDS011;40967;52.070;8.596;2023-12-20T00:00:00;5.85;;;3.40;;
55069;SDS011;40967;52.070;8.596;2023-12-20T00:02:29;5.78;;;3.10;;
55069;SDS011;40967;52.070;8.596;2023-12-20T00:04:59;5.40;;;3.10;;
55069;SDS011;40967;52.070;8.596;2023-12-20T00:07:27;5.32;;;2.60;;
55069;SDS011;40967;52.070;8.596;2023-12-20T00:09:57;5.30;;;2.97;;
55069;SDS011;40967;52.070;8.596;2023-12-20T00:12:25;4.30;;;2.33;;
55069;SDS011;40967;52.070;8.596;2023-12-20T00:14:52;4.65;;;2.53;;
55069;SDS011;40967;52.070;8.596;2023-12-20T00:17:19;5.20;;;2.67;;
55069;SDS011;40967;52.070;8.596;2023-12-20T00:19:51;4.75;;;2.50;;
55069;SDS011;40967;52.070;8.596;2023-12-20T00:22:22;4.10;;;2.30;;
55069;SDS011;40967;52.070;8.596;2023-12-20T00:24:50;4.63;;;2.40;;
55069;SDS011;40967;52.070;8.596;2023-12-20T00:27:17;3.88;;;2.15;;
55069;SDS011;40967;52.070;8.596;2023-12-20T00:29:48;4.18;;;2.40;;
55069;SDS011;40967;52.070;8.596;2023-12-20T00:32:16;6.90;;;3.00;;
55069;SDS011;40967;52.070;8.596;2023-12-20T00:34:43;6.43;;;3.50;;
55069;SDS011;40967;52.070;8.596;2023-12-20T00:37:10;7.25;;;3.67;;
55069;SDS011;40967;52.070;8.596;2023-12-20T00:39:40;7.93;;;3.90;;
55069;SDS011;40967;52.070;8.596;2023-12-20T00:42:11;6.90;;;3.55;;
55069;SDS011;40967;52.070;8.596;2023-12-20T00:44:38;8.70;;;3.40;;
55069;SDS011;40967;52.070;8.596;2023-12-20T00:47:09;6.43;;;3.08;;
55069;SDS011;40967;52.070;8.596;2023-12-20T00:49:38;7.05;;;3.10;;
55069;SDS011;40967;52.070;8.596;2023-12-20T00:52:05;5.90;;;2.73;;
55069;SDS011;40967;52.070;8.596;2023-12-20T00:54:32;6.17;;;2.67;;
55069;SDS011;40967;52.070;8.596;2023-12-20T00:57:00;6.07;;;2.63;;
55069;SDS011;40967;52.070;8.596;2023-12-20T00:59:29;6.45;;;2.58;;
55069;SDS011;40967;52.070;8.596;2023-12-20T01:01:55;5.60;;;2.30;;
55069;SDS011;40967;52.070;8.596;2023-12-20T01:04:25;5.13;;;2.33;;
55069;SDS011;40967;52.070;8.596;2023-12-20T01:06:53;7.23;;;2.17;;
55069;SDS011;40967;52.070;8.596;2023-12-20T01:09:20;5.50;;;2.38;;
55069;SDS011;40967;52.070;8.596;2023-12-20T01:11:53;5.95;;;2.33;;
55069;SDS011;40967;52.070;8.596;2023-12-20T01:14:20;4.88;;;2.03;;
55069;SDS011;40967;52.070;8.596;2023-12-20T01:16:50;4.30;;;1.90;;
55069;SDS011;40967;52.070;8.596;2023-12-20T01:19:17;4.75;;;2.13;;
55069;SDS011;40967;52.070;8.596;2023-12-20T01:21:48;5.15;;;2.05;;
55069;SDS011;40967;52.070;8.596;2023-12-20T01:24:18;3.38;;;1.67;;
55069;SDS011;40967;52.070;8.596;2023-12-20T01:26:45;3.63;;;1.80;;
55069;SDS011;40967;52.070;8.596;2023-12-20T01:29:15;6.83;;;2.17;;
55069;SDS011;40967;52.070;8.596;2023-12-20T01:31:42;6.88;;;2.30;;
55069;SDS011;40967;52.070;8.596;2023-12-20T01:34:09;5.25;;;2.22;;
55069;SDS011;40967;52.070;8.596;2023-12-20T01:36:36;4.68;;;2.10;;
55069;SDS011;40967;52.070;8.596;2023-12-20T01:39:04;7.35;;;2.58;;
55069;SDS011;40967;52.070;8.596;2023-12-20T01:41:32;8.17;;;2.77;;
55069;SDS011;40967;52.070;8.596;2023-12-20T01:44:13;6.55;;;2.60;;
55069;SDS011;40967;52.070;8.596;2023-12-20T01:46:42;4.22;;;2.08;;
55069;SDS011;40967;52.070;8.596;2023-12-20T01:49:09;4.13;;;1.80;;
55069;SDS011;40967;52.070;8.596;2023-12-20T01:51:38;5.32;;;1.60;;
55069;SDS011;40967;52.070;8.596;2023-12-20T01:54:07;4.43;;;1.73;;
55069;SDS011;40967;52.070;8.596;2023-12-20T01:56:34;4.47;;;1.60;;
55069;SDS011;40967;52.070;8.596;2023-12-20T01:59:01;4.25;;;1.65;;
55069;SDS011;40967;52.070;8.596;2023-12-20T02:01:30;4.00;;;1.57;;
55069;SDS011;40967;52.070;8.596;2023-12-20T02:03:58;5.63;;;1.70;;
55069;SDS011;40967;52.070;8.596;2023-12-20T02:06:26;5.78;;;1.90;;
55069;SDS011;40967;52.070;8.596;2023-12-20T02:09:00;3.80;;;1.67;;
55069;SDS011;40967;52.070;8.596;2023-12-20T02:11:31;5.95;;;2.03;;
55069;SDS011;40967;52.070;8.596;2023-12-20T02:14:01;7.25;;;1.60;;
55069;SDS011;40967;52.070;8.596;2023-12-20T02:16:28;5.93;;;2.03;;
55069;SDS011;40967;52.070;8.596;2023-12-20T02:18:56;7.18;;;2.30;;
55069;SDS011;40967;52.070;8.596;2023-12-20T02:21:26;5.20;;;1.70;;
55069;SDS011;40967;52.070;8.596;2023-12-20T02:24:00;5.13;;;2.15;;
55069;SDS011;40967;52.070;8.596;2023-12-20T02:26:26;5.60;;;2.10;;
55069;SDS011;40967;52.070;8.596;2023-12-20T02:28:54;4.75;;;1.67;;
55069;SDS011;40967;52.070;8.596;2023-12-20T02:31:21;4.45;;;1.60;;
55069;SDS011;40967;52.070;8.596;2023-12-20T02:33:49;5.22;;;1.70;;
55069;SDS011;40967;52.070;8.596;2023-12-20T02:36:15;3.58;;;1.50;;
55069;SDS011;40967;52.070;8.596;2023-12-20T02:38:44;4.40;;;1.67;;
55069;SDS011;40967;52.070;8.596;2023-12-20T02:41:12;5.70;;;1.83;;
55069;SDS011;40967;52.070;8.596;2023-12-20T02:43:44;5.90;;;2.05;;
55069;SDS011;40967;52.070;8.596;2023-12-20T02:46:13;5.68;;;2.08;;
55069;SDS011;40967;52.070;8.596;2023-12-20T02:48:42;5.85;;;1.83;;
55069;SDS011;40967;52.070;8.596;2023-12-20T02:51:09;5.40;;;1.63;;
55069;SDS011;40967;52.070;8.596;2023-12-20T02:53:36;6.85;;;1.70;;
55069;SDS011;40967;52.070;8.596;2023-12-20T02:56:06;5.03;;;2.00;;
55069;SDS011;40967;52.070;8.596;2023-12-20T02:58:35;6.47;;;1.77;;
55069;SDS011;40967;52.070;8.596;2023-12-20T03:01:11;5.25;;;1.90;;
55069;SDS011;40967;52.070;8.596;2023-12-20T03:03:41;5.18;;;1.70;;
55069;SDS011;40967;52.070;8.596;2023-12-20T03:06:08;6.90;;;2.72;;
55069;SDS011;40967;52.070;8.596;2023-12-20T03:08:35;6.85;;;2.15;;
55069;SDS011;40967;52.070;8.596;2023-12-20T03:11:07;5.80;;;2.00;;
55069;SDS011;40967;52.070;8.596;2023-12-20T03:13:36;4.65;;;2.10;;
55069;SDS011;40967;52.070;8.596;2023-12-20T03:16:07;6.93;;;2.50;;
55069;SDS011;40967;52.070;8.596;2023-12-20T03:18:35;8.32;;;2.70;;
55069;SDS011;40967;52.070;8.596;2023-12-20T03:21:07;6.05;;;2.40;;
55069;SDS011;40967;52.070;8.596;2023-12-20T03:23:35;7.22;;;2.30;;
55069;SDS011;40967;52.070;8.596;2023-12-20T03:26:05;14.30;;;4.35;;
55069;SDS011;40967;52.070;8.596;2023-12-20T03:28:35;9.75;;;2.90;;
55069;SDS011;40967;52.070;8.596;2023-12-20T03:31:03;8.88;;;2.85;;
55069;SDS011;40967;52.070;8.596;2023-12-20T03:33:32;11.63;;;3.53;;
55069;SDS011;40967;52.070;8.596;2023-12-20T03:36:04;9.48;;;3.53;;
55069;SDS011;40967;52.070;8.596;2023-12-20T03:38:31;10.77;;;3.75;;
55069;SDS011;40967;52.070;8.596;2023-12-20T03:40:59;6.95;;;2.97;;
55069;SDS011;40967;52.070;8.596;2023-12-20T03:43:28;8.40;;;2.80;;
55069;SDS011;40967;52.070;8.596;2023-12-20T03:45:54;16.85;;;4.25;;
55069;SDS011;40967;52.070;8.596;2023-12-20T03:48:21;9.95;;;4.05;;
55069;SDS011;40967;52.070;8.596;2023-12-20T03:50:49;6.80;;;3.10;;
55069;SDS011;40967;52.070;8.596;2023-12-20T03:53:16;7.90;;;2.95;;
55069;SDS011;40967;52.070;8.596;2023-12-20T03:55:44;7.28;;;3.03;;
55069;SDS011;40967;52.070;8.596;2023-12-20T03:58:13;11.95;;;3.88;;
55069;SDS011;40967;52.070;8.596;2023-12-20T04:00:41;10.07;;;3.80;;
55069;SDS011;40967;52.070;8.596;2023-12-20T04:03:09;12.63;;;4.75;;
55069;SDS011;40967;52.070;8.596;2023-12-20T04:05:39;7.78;;;3.40;;
55069;SDS011;40967;52.070;8.596;2023-12-20T04:08:06;12.63;;;4.43;;
55069;SDS011;40967;52.070;8.596;2023-12-20T04:10:35;10.38;;;3.72;;
55069;SDS011;40967;52.070;8.596;2023-12-20T04:13:03;9.45;;;3.35;;
55069;SDS011;40967;52.070;8.596;2023-12-20T04:15:32;8.45;;;3.20;;
55069;SDS011;40967;52.070;8.596;2023-12-20T04:18:01;15.02;;;4.68;;
55069;SDS011;40967;52.070;8.596;2023-12-20T04:20:30;16.45;;;4.75;;
55069;SDS011;40967;52.070;8.596;2023-12-20T04:22:57;13.52;;;4.80;;
55069;SDS011;40967;52.070;8.596;2023-12-20T04:25:23;14.93;;;4.73;;
55069;SDS011;40967;52.070;8.596;2023-12-20T04:27:54;14.27;;;4.25;;
55069;SDS011;40967;52.070;8.596;2023-12-20T04:30:30;15.27;;;4.55;;
55069;SDS011;40967;52.070;8.596;2023-12-20T04:32:57;13.85;;;4.50;;
55069;SDS011;40967;52.070;8.596;2023-12-20T04:35:27;18.60;;;4.88;;
55069;SDS011;40967;52.070;8.596;2023-12-20T04:37:54;10.85;;;4.35;;
55069;SDS011;40967;52.070;8.596;2023-12-20T04:40:20;13.80;;;4.20;;
55069;SDS011;40967;52.070;8.596;2023-12-20T04:42:47;11.67;;;3.80;;
55069;SDS011;40967;52.070;8.596;2023-12-20T04:45:14;7.22;;;3.08;;
55069;SDS011;40967;52.070;8.596;2023-12-20T04:47:42;14.25;;;3.88;;
55069;SDS011;40967;52.070;8.596;2023-12-20T04:50:12;10.27;;;3.33;;
55069;SDS011;40967;52.070;8.596;2023-12-20T04:52:44;12.85;;;3.83;;
55069;SDS011;40967;52.070;8.596;2023-12-20T04:55:11;14.70;;;4.90;;
55069;SDS011;40967;52.070;8.596;2023-12-20T04:57:38;14.02;;;4.63;;
55069;SDS011;40967;52.070;8.596;2023-12-20T05:00:09;12.90;;;4.32;;
55069;SDS011;40967;52.070;8.596;2023-12-20T05:02:38;16.35;;;4.70;;
55069;SDS011;40967;52.070;8.596;2023-12-20T05:05:08;11.95;;;4.35;;
55069;SDS011;40967;52.070;8.596;2023-12-20T05:07:35;14.38;;;3.80;;
55069;SDS011;40967;52.070;8.596;2023-12-20T05:10:04;12.68;;;4.30;;
55069;SDS011;40967;52.070;8.596;2023-12-20T05:12:35;11.05;;;3.80;;
55069;SDS011;40967;52.070;8.596;2023-12-20T05:15:05;12.27;;;4.32;;
55069;SDS011;40967;52.070;8.596;2023-12-20T05:17:38;18.27;;;7.60;;
55069;SDS011;40967;52.070;8.596;2023-12-20T05:20:06;16.73;;;5.43;;
55069;SDS011;40967;52.070;8.596;2023-12-20T05:22:34;15.32;;;4.50;;
55069;SDS011;40967;52.070;8.596;2023-12-20T05:28:20;12.60;;;4.28;;
55069;SDS011;40967;52.070;8.596;2023-12-20T05:30:48;15.20;;;4.28;;
55069;SDS011;40967;52.070;8.596;2023-12-20T05:33:15;13.32;;;3.80;;
55069;SDS011;40967;52.070;8.596;2023-12-20T05:35:42;13.18;;;3.97;;
55069;SDS011;40967;52.070;8.596;2023-12-20T05:38:09;15.70;;;4.03;;
55069;SDS011;40967;52.070;8.596;2023-12-20T05:40:38;14.60;;;3.90;;
55069;SDS011;40967;52.070;8.596;2023-12-20T05:43:05;9.32;;;3.33;;
55069;SDS011;40967;52.070;8.596;2023-12-20T05:45:33;12.07;;;3.58;;
55069;SDS011;40967;52.070;8.596;2023-12-20T05:48:00;10.00;;;3.38;;
55069;SDS011;40967;52.070;8.596;2023-12-20T05:50:27;13.00;;;4.25;;
55069;SDS011;40967;52.070;8.596;2023-12-20T05:52:54;13.40;;;4.43;;
55069;SDS011;40967;52.070;8.596;2023-12-20T05:55:22;18.35;;;5.10;;
55069;SDS011;40967;52.070;8.596;2023-12-20T05:57:50;14.40;;;4.55;;
55069;SDS011;40967;52.070;8.596;2023-12-20T06:00:17;13.82;;;4.15;;
55069;SDS011;40967;52.070;8.596;2023-12-20T06:02:47;13.45;;;4.28;;
55069;SDS011;40967;52.070;8.596;2023-12-20T06:05:15;15.48;;;3.88;;
55069;SDS011;40967;52.070;8.596;2023-12-20T06:07:42;19.45;;;4.43;;
55069;SDS011;40967;52.070;8.596;2023-12-20T06:10:13;10.52;;;3.30;;
55069;SDS011;40967;52.070;8.596;2023-12-20T06:12:46;17.13;;;4.28;;
55069;SDS011;40967;52.070;8.596;2023-12-20T06:15:15;14.90;;;4.40;;
55069;SDS011;40967;52.070;8.596;2023-12-20T06:17:48;17.08;;;4.38;;
55069;SDS011;40967;52.070;8.596;2023-12-20T06:20:15;16.83;;;4.60;;
55069;SDS011;40967;52.070;8.596;2023-12-20T06:22:44;20.88;;;5.22;;
55069;SDS011;40967;52.070;8.596;2023-12-20T06:25:14;14.50;;;4.63;;
55069;SDS011;40967;52.070;8.596;2023-12-20T06:27:41;18.80;;;4.63;;
55069;SDS011;40967;52.070;8.596;2023-12-20T06:30:09;14.07;;;4.07;;
55069;SDS011;40967;52.070;8.596;2023-12-20T06:32:36;15.38;;;3.92;;
55069;SDS011;40967;52.070;8.596;2023-12-20T06:35:06;12.48;;;4.20;;
55069;SDS011;40967;52.070;8.596;2023-12-20T06:37:35;15.70;;;4.90;;
55069;SDS011;40967;52.070;8.596;2023-12-20T06:40:10;14.45;;;4.20;;
55069;SDS011;40967;52.070;8.596;2023-12-20T06:42:41;11.13;;;3.75;;
55069;SDS011;40967;52.070;8.596;2023-12-20T06:45:09;13.43;;;3.90;;
55069;SDS011;40967;52.070;8.596;2023-12-20T06:47:38;12.00;;;3.60;;
55069;SDS011;40967;52.070;8.596;2023-12-20T06:50:07;11.00;;;3.40;;
55069;SDS011;40967;52.070;8.596;2023-12-20T06:52:34;13.15;;;3.95;;
55069;SDS011;40967;52.070;8.596;2023-12-20T06:55:01;8.47;;;3.27;;
55069;SDS011;40967;52.070;8.596;2023-12-20T06:57:30;11.32;;;4.00;;
55069;SDS011;40967;52.070;8.596;2023-12-20T06:59:57;12.87;;;4.27;;
55069;SDS011;40967;52.070;8.596;2023-12-20T07:02:27;18.38;;;5.22;;
55069;SDS011;40967;52.070;8.596;2023-12-20T07:04:59;15.45;;;4.35;;
55069;SDS011;40967;52.070;8.596;2023-12-20T07:07:27;15.45;;;4.35;;
55069;SDS011;40967;52.070;8.596;2023-12-20T07:10:03;13.05;;;4.00;;
55069;SDS011;40967;52.070;8.596;2023-12-20T07:12:34;22.20;;;6.25;;
55069;SDS011;40967;52.070;8.596;2023-12-20T07:15:03;20.70;;;5.57;;
55069;SDS011;40967;52.070;8.596;2023-12-20T07:17:32;14.55;;;4.18;;
55069;SDS011;40967;52.070;8.596;2023-12-20T07:19:59;20.90;;;5.60;;
55069;SDS011;40967;52.070;8.596;2023-12-20T07:22:30;16.33;;;5.05;;
55069;SDS011;40967;52.070;8.596;2023-12-20T07:24:57;15.98;;;5.55;;
55069;SDS011;40967;52.070;8.596;2023-12-20T07:27:25;10.77;;;4.72;;
55069;SDS011;40967;52.070;8.596;2023-12-20T07:29:53;16.35;;;5.38;;
55069;SDS011;40967;52.070;8.596;2023-12-20T07:32:20;13.13;;;4.03;;
55069;SDS011;40967;52.070;8.596;2023-12-20T07:34:47;18.45;;;4.57;;
55069;SDS011;40967;52.070;8.596;2023-12-20T07:37:14;13.18;;;4.10;;
55069;SDS011;40967;52.070;8.596;2023-12-20T07:39:44;14.40;;;3.97;;
55069;SDS011;40967;52.070;8.596;2023-12-20T07:42:10;9.70;;;3.42;;
55069;SDS011;40967;52.070;8.596;2023-12-20T07:44:37;14.00;;;3.80;;
55069;SDS011;40967;52.070;8.596;2023-12-20T07:47:04;11.35;;;4.30;;
55069;SDS011;40967;52.070;8.596;2023-12-20T07:49:34;13.07;;;3.58;;
55069;SDS011;40967;52.070;8.596;2023-12-20T07:52:00;17.60;;;4.00;;
55069;SDS011;40967;52.070;8.596;2023-12-20T07:54:27;16.17;;;4.50;;
55069;SDS011;40967;52.070;8.596;2023-12-20T07:56:57;11.00;;;3.55;;
55069;SDS011;40967;52.070;8.596;2023-12-20T07:59:25;12.95;;;4.05;;
55069;SDS011;40967;52.070;8.596;2023-12-20T08:01:53;12.80;;;4.07;;
55069;SDS011;40967;52.070;8.596;2023-12-20T08:04:20;13.27;;;3.90;;
55069;SDS011;40967;52.070;8.596;2023-12-20T08:06:46;15.55;;;4.35;;
55069;SDS011;40967;52.070;8.596;2023-12-20T08:09:15;16.92;;;4.03;;
55069;SDS011;40967;52.070;8.596;2023-12-20T08:11:44;16.75;;;3.80;;
55069;SDS011;40967;52.070;8.596;2023-12-20T08:14:14;16.90;;;3.83;;
55069;SDS011;40967;52.070;8.596;2023-12-20T08:16:44;15.93;;;3.80;;
55069;SDS011;40967;52.070;8.596;2023-12-20T08:19:10;14.95;;;4.22;;
55069;SDS011;40967;52.070;8.596;2023-12-20T08:21:38;13.95;;;4.05;;
55069;SDS011;40967;52.070;8.596;2023-12-20T08:24:05;17.65;;;4.07;;
55069;SDS011;40967;52.070;8.596;2023-12-20T08:26:33;16.77;;;4.15;;
55069;SDS011;40967;52.070;8.596;2023-12-20T08:29:04;15.25;;;3.53;;
55069;SDS011;40967;52.070;8.596;2023-12-20T08:31:32;15.45;;;3.65;;
55069;SDS011;40967;52.070;8.596;2023-12-20T08:33:59;17.17;;;4.00;;
55069;SDS011;40967;52.070;8.596;2023-12-20T08:36:26;19.80;;;4.53;;
55069;SDS011;40967;52.070;8.596;2023-12-20T08:38:53;15.25;;;4.00;;
55069;SDS011;40967;52.070;8.596;2023-12-20T08:41:20;12.88;;;3.67;;
55069;SDS011;40967;52.070;8.596;2023-12-20T08:43:47;17.83;;;4.07;;
55069;SDS011;40967;52.070;8.596;2023-12-20T08:46:18;9.85;;;3.88;;
55069;SDS011;40967;52.070;8.596;2023-12-20T08:48:46;13.07;;;3.63;;
55069;SDS011;40967;52.070;8.596;2023-12-20T08:51:15;14.60;;;4.18;;
55069;SDS011;40967;52.070;8.596;2023-12-20T08:53:42;8.73;;;2.90;;
55069;SDS011;40967;52.070;8.596;2023-12-20T08:56:10;10.43;;;3.30;;
55069;SDS011;40967;52.070;8.596;2023-12-20T08:58:39;15.15;;;4.45;;
55069;SDS011;40967;52.070;8.596;2023-12-20T09:01:05;13.75;;;4.18;;
55069;SDS011;40967;52.070;8.596;2023-12-20T09:03:33;15.07;;;4.55;;
55069;SDS011;40967;52.070;8.596;2023-12-20T09:06:01;13.13;;;4.03;;
55069;SDS011;40967;52.070;8.596;2023-12-20T09:08:28;16.80;;;4.28;;
55069;SDS011;40967;52.070;8.596;2023-12-20T09:10:55;14.30;;;3.83;;
55069;SDS011;40967;52.070;8.596;2023-12-20T09:13:26;13.23;;;3.92;;
55069;SDS011;40967;52.070;8.596;2023-12-20T09:15:55;13.25;;;3.63;;
55069;SDS011;40967;52.070;8.596;2023-12-20T09:18:22;15.05;;;4.53;;
55069;SDS011;40967;52.070;8.596;2023-12-20T09:20:53;12.13;;;4.07;;
55069;SDS011;40967;52.070;8.596;2023-12-20T09:23:21;14.60;;;4.30;;
55069;SDS011;40967;52.070;8.596;2023-12-20T09:25:48;19.10;;;5.05;;
55069;SDS011;40967;52.070;8.596;2023-12-20T09:28:14;15.55;;;4.53;;
55069;SDS011;40967;52.070;8.596;2023-12-20T09:30:42;14.88;;;4.85;;
55069;SDS011;40967;52.070;8.596;2023-12-20T09:33:12;17.15;;;4.68;;
55069;SDS011;40967;52.070;8.596;2023-12-20T09:35:42;16.13;;;5.07;;
55069;SDS011;40967;52.070;8.596;2023-12-20T09:38:09;18.13;;;5.65;;
55069;SDS011;40967;52.070;8.596;2023-12-20T09:40:37;15.40;;;4.67;;
55069;SDS011;40967;52.070;8.596;2023-12-20T09:43:10;17.35;;;4.82;;
55069;SDS011;40967;52.070;8.596;2023-12-20T09:45:41;17.08;;;4.90;;
55069;SDS011;40967;52.070;8.596;2023-12-20T09:48:13;17.15;;;5.47;;
55069;SDS011;40967;52.070;8.596;2023-12-20T09:50:45;14.98;;;4.82;;
55069;SDS011;40967;52.070;8.596;2023-12-20T09:53:16;18.25;;;5.38;;
55069;SDS011;40967;52.070;8.596;2023-12-20T09:55:47;16.70;;;4.82;;
55069;SDS011;40967;52.070;8.596;2023-12-20T09:58:14;15.88;;;4.72;;
55069;SDS011;40967;52.070;8.596;2023-12-20T10:00:42;13.95;;;4.97;;
55069;SDS011;40967;52.070;8.596;2023-12-20T10:03:17;15.18;;;4.47;;
55069;SDS011;40967;52.070;8.596;2023-12-20T10:05:50;15.40;;;4.57;;
55069;SDS011;40967;52.070;8.596;2023-12-20T10:08:23;16.08;;;4.65;;
55069;SDS011;40967;52.070;8.596;2023-12-20T10:10:52;19.83;;;4.90;;
55069;SDS011;40967;52.070;8.596;2023-12-20T10:13:19;15.15;;;4.55;;
55069;SDS011;40967;52.070;8.596;2023-12-20T10:15:46;16.02;;;4.40;;
55069;SDS011;40967;52.070;8.596;2023-12-20T10:18:13;21.08;;;6.07;;
55069;SDS011;40967;52.070;8.596;2023-12-20T10:20:42;17.90;;;5.07;;
55069;SDS011;40967;52.070;8.596;2023-12-20T10:23:11;14.48;;;4.80;;
55069;SDS011;40967;52.070;8.596;2023-12-20T10:25:38;19.25;;;5.10;;
55069;SDS011;40967;52.070;8.596;2023-12-20T10:28:11;13.45;;;4.13;;
55069;SDS011;40967;52.070;8.596;2023-12-20T10:30:39;12.73;;;3.80;;
55069;SDS011;40967;52.070;8.596;2023-12-20T10:33:09;14.52;;;4.82;;
55069;SDS011;40967;52.070;8.596;2023-12-20T10:35:36;14.40;;;4.47;;
55069;SDS011;40967;52.070;8.596;2023-12-20T10:38:04;14.40;;;4.63;;
55069;SDS011;40967;52.070;8.596;2023-12-20T10:40:34;16.93;;;4.83;;
55069;SDS011;40967;52.070;8.596;2023-12-20T10:43:03;16.42;;;4.60;;
55069;SDS011;40967;52.070;8.596;2023-12-20T10:45:35;12.90;;;3.90;;
55069;SDS011;40967;52.070;8.596;2023-12-20T10:48:02;15.63;;;4.03;;
55069;SDS011;40967;52.070;8.596;2023-12-20T10:50:38;14.50;;;3.92;;
55069;SDS011;40967;52.070;8.596;2023-12-20T10:53:07;14.48;;;4.20;;
55069;SDS011;40967;52.070;8.596;2023-12-20T10:55:39;15.57;;;4.28;;
55069;SDS011;40967;52.070;8.596;2023-12-20T10:58:07;17.60;;;3.90;;
55069;SDS011;40967;52.070;8.596;2023-12-20T11:00:37;14.00;;;3.67;;
55069;SDS011;40967;52.070;8.596;2023-12-20T11:03:09;13.60;;;3.50;;
55069;SDS011;40967;52.070;8.596;2023-12-20T11:05:38;12.25;;;2.88;;
55069;SDS011;40967;52.070;8.596;2023-12-20T11:08:13;14.38;;;3.47;;
55069;SDS011;40967;52.070;8.596;2023-12-20T11:10:48;12.40;;;3.22;;
55069;SDS011;40967;52.070;8.596;2023-12-20T11:13:26;11.80;;;3.20;;
55069;SDS011;40967;52.070;8.596;2023-12-20T11:16:00;13.30;;;3.80;;
55069;SDS011;40967;52.070;8.596;2023-12-20T11:18:28;14.55;;;3.60;;
55069;SDS011;40967;52.070;8.596;2023-12-20T11:21:00;13.98;;;3.50;;
55069;SDS011;40967;52.070;8.596;2023-12-20T11:23:29;14.18;;;3.38;;
55069;SDS011;40967;52.070;8.596;2023-12-20T11:25:58;11.18;;;3.53;;
55069;SDS011;40967;52.070;8.596;2023-12-20T11:28:25;12.18;;;3.30;;
55069;SDS011;40967;52.070;8.596;2023-12-20T11:30:55;10.13;;;2.80;;
55069;SDS011;40967;52.070;8.596;2023-12-20T11:33:27;11.77;;;3.40;;
55069;SDS011;40967;52.070;8.596;2023-12-20T11:35:56;12.38;;;3.42;;
55069;SDS011;40967;52.070;8.596;2023-12-20T11:38:25;13.23;;;4.03;;
55069;SDS011;40967;52.070;8.596;2023-12-20T11:40:54;13.07;;;3.25;;
55069;SDS011;40967;52.070;8.596;2023-12-20T11:43:31;12.40;;;3.53;;
55069;SDS011;40967;52.070;8.596;2023-12-20T11:46:03;10.00;;;2.60;;
55069;SDS011;40967;52.070;8.596;2023-12-20T11:48:34;12.35;;;3.30;;
55069;SDS011;40967;52.070;8.596;2023-12-20T11:51:08;11.55;;;3.40;;
55069;SDS011;40967;52.070;8.596;2023-12-20T11:53:36;13.32;;;3.50;;
55069;SDS011;40967;52.070;8.596;2023-12-20T11:56:04;9.50;;;3.20;;
55069;SDS011;40967;52.070;8.596;2023-12-20T11:58:32;11.60;;;3.33;;
55069;SDS011;40967;52.070;8.596;2023-12-20T12:01:06;10.75;;;3.17;;
55069;SDS011;40967;52.070;8.596;2023-12-20T12:03:35;14.00;;;3.55;;
55069;SDS011;40967;52.070;8.596;2023-12-20T12:06:05;10.97;;;3.03;;
55069;SDS011;40967;52.070;8.596;2023-12-20T12:08:32;12.93;;;2.50;;
55069;SDS011;40967;52.070;8.596;2023-12-20T12:11:00;9.80;;;2.57;;
55069;SDS011;40967;52.070;8.596;2023-12-20T12:13:30;12.05;;;2.90;;
55069;SDS011;40967;52.070;8.596;2023-12-20T12:15:57;11.60;;;2.90;;
55069;SDS011;40967;52.070;8.596;2023-12-20T12:18:25;12.00;;;3.03;;
55069;SDS011;40967;52.070;8.596;2023-12-20T12:21:00;10.88;;;2.90;;
55069;SDS011;40967;52.070;8.596;2023-12-20T12:23:28;7.95;;;2.58;;
55069;SDS011;40967;52.070;8.596;2023-12-20T12:25:59;11.32;;;2.80;;
55069;SDS011;40967;52.070;8.596;2023-12-20T12:28:39;13.25;;;2.88;;
55069;SDS011;40967;52.070;8.596;2023-12-20T12:31:07;8.63;;;2.72;;
55069;SDS011;40967;52.070;8.596;2023-12-20T12:33:35;14.52;;;2.85;;
55069;SDS011;40967;52.070;8.596;2023-12-20T12:36:08;10.05;;;2.40;;
55069;SDS011;40967;52.070;8.596;2023-12-20T12:38:35;14.27;;;2.95;;
55069;SDS011;40967;52.070;8.596;2023-12-20T12:41:02;9.75;;;2.45;;
55069;SDS011;40967;52.070;8.596;2023-12-20T12:43:29;11.70;;;3.05;;
55069;SDS011;40967;52.070;8.596;2023-12-20T12:45:56;8.20;;;1.98;;
55069;SDS011;40967;52.070;8.596;2023-12-20T12:48:22;12.98;;;2.65;;
55069;SDS011;40967;52.070;8.596;2023-12-20T12:50:53;9.05;;;2.53;;
55069;SDS011;40967;52.070;8.596;2023-12-20T12:53:25;13.07;;;3.17;;
55069;SDS011;40967;52.070;8.596;2023-12-20T12:55:55;8.32;;;2.72;;
55069;SDS011;40967;52.070;8.596;2023-12-20T12:58:22;13.77;;;3.17;;
55069;SDS011;40967;52.070;8.596;2023-12-20T13:00:50;14.10;;;3.22;;
55069;SDS011;40967;52.070;8.596;2023-12-20T13:03:17;11.90;;;3.13;;
55069;SDS011;40967;52.070;8.596;2023-12-20T13:05:44;12.10;;;2.70;;
55069;SDS011;40967;52.070;8.596;2023-12-20T13:08:12;9.32;;;2.45;;
55069;SDS011;40967;52.070;8.596;2023-12-20T13:10:40;7.38;;;2.20;;
55069;SDS011;40967;52.070;8.596;2023-12-20T13:13:07;6.90;;;1.70;;
55069;SDS011;40967;52.070;8.596;2023-12-20T13:15:39;6.70;;;1.30;;
55069;SDS011;40967;52.070;8.596;2023-12-20T13:18:06;4.53;;;0.98;;
55069;SDS011;40967;52.070;8.596;2023-12-20T13:20:33;5.37;;;0.93;;
55069;SDS011;40967;52.070;8.596;2023-12-20T13:23:00;5.57;;;1.10;;
55069;SDS011;40967;52.070;8.596;2023-12-20T13:25:27;3.42;;;0.88;;
55069;SDS011;40967;52.070;8.596;2023-12-20T13:27:55;4.77;;;0.87;;
55069;SDS011;40967;52.070;8.596;2023-12-20T13:30:22;8.68;;;2.50;;
55069;SDS011;40967;52.070;8.596;2023-12-20T13:32:48;4.97;;;1.67;;
55069;SDS011;40967;52.070;8.596;2023-12-20T13:35:17;6.57;;;2.00;;
55069;SDS011;40967;52.070;8.596;2023-12-20T13:37:45;6.40;;;1.92;;
55069;SDS011;40967;52.070;8.596;2023-12-20T13:40:12;4.25;;;1.30;;
55069;SDS011;40967;52.070;8.596;2023-12-20T13:42:39;6.88;;;1.63;;
55069;SDS011;40967;52.070;8.596;2023-12-20T13:45:08;4.07;;;0.90;;
55069;SDS011;40967;52.070;8.596;2023-12-20T13:47:35;4.45;;;1.30;;
55069;SDS011;40967;52.070;8.596;2023-12-20T13:50:02;5.47;;;1.10;;
55069;SDS011;40967;52.070;8.596;2023-12-20T13:52:30;5.28;;;1.00;;
55069;SDS011;40967;52.070;8.596;2023-12-20T13:54:57;5.68;;;1.42;;
55069;SDS011;40967;52.070;8.596;2023-12-20T13:57:24;4.90;;;1.10;;
55069;SDS011;40967;52.070;8.596;2023-12-20T13:59:51;3.38;;;0.85;;
55069;SDS011;40967;52.070;8.596;2023-12-20T14:02:19;4.82;;;0.90;;
55069;SDS011;40967;52.070;8.596;2023-12-20T14:04:46;7.97;;;1.50;;
55069;SDS011;40967;52.070;8.596;2023-12-20T14:07:13;5.60;;;1.20;;
55069;SDS011;40967;52.070;8.596;2023-12-20T14:09:40;4.67;;;1.30;;
55069;SDS011;40967;52.070;8.596;2023-12-20T14:12:10;4.82;;;0.88;;
55069;SDS011;40967;52.070;8.596;2023-12-20T14:14:38;5.25;;;0.82;;
55069;SDS011;40967;52.070;8.596;2023-12-20T14:17:05;6.68;;;1.40;;
55069;SDS011;40967;52.070;8.596;2023-12-20T14:19:39;5.82;;;1.10;;
55069;SDS011;40967;52.070;8.596;2023-12-20T14:22:06;6.23;;;1.20;;
55069;SDS011;40967;52.070;8.596;2023-12-20T14:24:35;4.85;;;1.17;;
55069;SDS011;40967;52.070;8.596;2023-12-20T14:27:04;6.70;;;1.47;;
55069;SDS011;40967;52.070;8.596;2023-12-20T14:29:31;7.85;;;1.35;;
55069;SDS011;40967;52.070;8.596;2023-12-20T14:31:58;7.50;;;1.52;;
55069;SDS011;40967;52.070;8.596;2023-12-20T14:34:26;7.18;;;1.00;;
55069;SDS011;40967;52.070;8.596;2023-12-20T14:36:57;7.50;;;1.40;;
55069;SDS011;40967;52.070;8.596;2023-12-20T14:39:26;7.40;;;1.85;;
55069;SDS011;40967;52.070;8.596;2023-12-20T14:42:05;7.65;;;2.83;;
55069;SDS011;40967;52.070;8.596;2023-12-20T14:44:38;8.40;;;2.13;;
55069;SDS011;40967;52.070;8.596;2023-12-20T14:47:08;9.45;;;2.13;;
55069;SDS011;40967;52.070;8.596;2023-12-20T14:49:36;7.38;;;1.75;;
55069;SDS011;40967;52.070;8.596;2023-12-20T14:52:09;8.43;;;2.05;;